Data for 09/23/2006

Time Sea-Level Adjusted Pressure Absolute Pressure Temperature Relative Humidity Dew Point   
(mb) (inHg) (mb) (inHg) (C) (F) (%) (C) (F)
00:05 1024 30.24 853 25.19 5 41 85 2.7 36.8
00:10 1024 30.24 853 25.19 5 40.9 86 2.8 37
00:15 1024 30.24 853 25.19 5 41 85 2.7 36.9
00:20 1024 30.24 853 25.19 4.9 40.9 86 2.8 37
00:25 1024 30.24 853 25.19 4.9 40.8 86 2.8 37
00:30 1024 30.24 853 25.19 4.8 40.7 86 2.7 36.9
00:35 1024 30.24 853 25.19 4.8 40.6 86 2.7 36.8
00:40 1024 30.24 853 25.19 4.8 40.6 86 2.7 36.9
00:45 1024 30.24 853 25.19 4.8 40.7 86 2.7 36.9
00:50 1024 30.24 853 25.19 4.8 40.6 86 2.7 36.8
00:55 1024 30.24 853 25.19 4.7 40.5 87 2.7 36.8
01:00 1024 30.24 853 25.19 4.8 40.6 86 2.7 36.8
01:05 1024 30.24 853 25.19 4.7 40.4 87 2.7 36.8
01:10 1024 30.24 854 25.22 4.6 40.3 87 2.7 36.8
01:15 1024 30.24 853 25.19 4.6 40.3 87 2.7 36.9
01:20 1024 30.24 854 25.22 4.6 40.3 87 2.7 36.8
01:25 1024 30.24 854 25.22 4.6 40.3 88 2.7 36.9
01:30 1024 30.24 853 25.19 4.6 40.4 87 2.7 36.9
01:35 1024 30.24 854 25.22 4.6 40.4 88 2.8 37.1
01:40 1024 30.24 854 25.22 4.7 40.4 88 2.8 37
01:45 1024 30.24 853 25.19 4.7 40.4 88 2.8 37
01:50 1024 30.24 853 25.19 4.6 40.3 88 2.8 37.1
01:55 1024 30.24 853 25.19 4.6 40.3 88 2.9 37.1
02:00 1024 30.24 854 25.22 4.6 40.3 89 2.9 37.3
02:05 1024 30.24 854 25.22 4.6 40.2 89 2.9 37.3
02:10 1024 30.24 854 25.22 4.6 40.3 89 2.9 37.3
02:15 1024 30.24 854 25.22 4.5 40.2 89 2.9 37.3
02:20 1024 30.24 854 25.22 4.6 40.3 88 2.8 37.1
02:25 1024 30.24 854 25.22 4.6 40.3 88 2.8 37.1
02:30 1024 30.24 854 25.22 4.6 40.3 89 3 37.3
02:35 1024 30.24 854 25.22 4.7 40.4 89 2.9 37.3
02:40 1024 30.24 854 25.22 4.6 40.3 89 3 37.3
02:45 1024 30.24 854 25.22 4.6 40.3 89 2.9 37.3
02:50 1024 30.24 854 25.22 4.6 40.2 89 2.9 37.2
02:55 1024 30.24 854 25.22 4.6 40.3 89 2.9 37.3
03:00 1024 30.24 854 25.22 4.6 40.2 89 2.9 37.3
03:05 1025 30.27 854 25.22 4.5 40.1 89 2.9 37.3
03:10 1025 30.27 854 25.22 4.5 40.2 90 3 37.4
03:15 1025 30.27 854 25.22 4.5 40 90 2.9 37.3
03:20 1025 30.27 854 25.22 4.5 40.1 90 3 37.4
03:25 1025 30.27 854 25.22 4.5 40.1 90 3 37.5
03:30 1025 30.27 854 25.22 4.6 40.2 90 3 37.5
03:35 1025 30.27 854 25.22 4.5 40.2 90 3 37.4
03:40 1025 30.27 854 25.22 4.5 40.1 90 2.9 37.3
03:45 1025 30.27 854 25.22 4.5 40.1 90 3 37.3
03:50 1025 30.27 854 25.22 4.5 40.1 90 3 37.4
03:55 1025 30.27 854 25.22 4.5 40.1 90 3 37.3
04:00 1025 30.27 854 25.22 4.5 40 90 2.9 37.2
04:05 1025 30.27 854 25.22 4.5 40 90 2.9 37.2
04:10 1025 30.27 854 25.22 4.5 40.1 90 2.9 37.3
04:15 1025 30.27 854 25.22 4.5 40.1 89 2.9 37.2
04:20 1025 30.27 854 25.22 4.5 40.2 89 2.9 37.2
04:25 1025 30.27 854 25.22 4.5 40.1 90 2.9 37.3
04:30 1025 30.27 854 25.22 4.6 40.2 89 2.9 37.2
04:35 1025 30.27 854 25.22 4.6 40.3 88 2.8 37
04:40 1025 30.27 854 25.22 4.7 40.4 88 2.8 37
04:45 1025 30.27 854 25.22 4.7 40.4 87 2.7 36.8
04:50 1025 30.27 854 25.22 4.7 40.5 86 2.6 36.8
04:55 1025 30.27 854 25.22 4.8 40.6 86 2.6 36.7
05:00 1025 30.27 854 25.22 4.8 40.7 86 2.6 36.7
05:05 1025 30.27 854 25.22 4.8 40.6 86 2.6 36.7
05:10 1025 30.27 854 25.22 4.7 40.5 86 2.6 36.7
05:15 1025 30.27 854 25.22 4.7 40.5 86 2.5 36.5
05:20 1025 30.27 854 25.22 4.7 40.5 86 2.6 36.6
05:25 1025 30.27 854 25.22 4.7 40.5 85 2.5 36.4
05:30 1025 30.27 854 25.22 4.8 40.6 86 2.6 36.7
05:35 1025 30.27 854 25.22 4.7 40.4 87 2.6 36.7
05:40 1025 30.27 854 25.22 4.7 40.5 86 2.5 36.6
05:45 1025 30.27 854 25.22 4.7 40.4 86 2.6 36.6
05:50 1025 30.27 854 25.22 4.5 40 86 2.4 36.3
05:55 1025 30.27 854 25.22 4.4 39.9 87 2.4 36.4
06:00 1025 30.27 854 25.22 4.4 39.9 87 2.4 36.2
06:05 1025 30.27 854 25.22 4.5 40.1 86 2.4 36.3
06:10 1025 30.27 854 25.22 4.5 40.1 86 2.4 36.3
06:15 1025 30.27 854 25.22 4.6 40.3 86 2.5 36.4
06:20 1025 30.27 854 25.22 4.7 40.5 85 2.4 36.3
06:25 1025 30.27 854 25.22 4.8 40.7 85 2.4 36.4
06:30 1025 30.27 854 25.22 4.9 40.8 84 2.4 36.4
06:35 1025 30.27 854 25.22 4.9 40.8 85 2.6 36.6
06:40 1025 30.27 854 25.22 4.5 40.1 86 2.3 36.2
06:45 1025 30.27 854 25.22 4.2 39.6 87 2.2 36
06:50 1025 30.27 854 25.22 4.2 39.5 87 2.2 36
06:55 1025 30.27 854 25.22 4.1 39.4 87 2.2 35.9
07:00 1025 30.27 855 25.25 4 39.3 87 2.1 35.8
07:05 1025 30.27 855 25.25 4 39.2 87 2 35.6
07:10 1025 30.27 855 25.25 3.9 39 87 1.9 35.4
07:15 1025 30.27 855 25.25 3.9 39 87 1.9 35.4
07:20 1025 30.27 855 25.25 3.9 39 86 1.8 35.3
07:25 1026 30.3 855 25.25 4 39.2 86 1.8 35.2
07:30 1026 30.3 855 25.25 4 39.2 86 1.8 35.3
07:35 1026 30.3 855 25.25 3.9 39 86 1.7 35.1
07:40 1026 30.3 855 25.25 4 39.1 85 1.7 35
07:45 1026 30.3 855 25.25 4.1 39.3 85 1.8 35.2
07:50 1026 30.3 855 25.25 4.3 39.7 84 1.8 35.2
07:55 1026 30.3 855 25.25 4.4 39.9 84 1.9 35.4
08:00 1026 30.3 855 25.25 4.5 40.2 83 1.9 35.4
08:05 1026 30.3 855 25.25 4.7 40.4 82 2 35.5
08:10 1026 30.3 855 25.25 4.8 40.6 82 2 35.5
08:15 1026 30.3 855 25.25 4.9 40.8 81 2 35.6
08:20 1026 30.3 855 25.25 5 41 81 2 35.5
08:25 1026 30.3 855 25.25 5 41.1 81 2 35.6
08:30 1026 30.3 855 25.25 5.1 41.2 81 2.1 35.8
08:35 1026 30.3 855 25.25 5.2 41.3 80 2 35.6
08:40 1026 30.3 855 25.25 5.4 41.8 79 2.1 35.9
08:45 1026 30.3 855 25.25 6 42.9 77 2.3 36.1
08:50 1026 30.3 855 25.25 6 42.8 76 2.2 35.9
08:55 1026 30.3 855 25.25 6 42.8 75 1.9 35.4
09:00 1026 30.3 855 25.25 6.7 44 74 2.4 36.3
09:05 1026 30.3 855 25.25 6.9 44.5 70 1.9 35.4
09:10 1026 30.3 855 25.25 7 44.6 71 2.1 35.8
09:15 1026 30.3 855 25.25 7.5 45.6 68 2 35.6
09:20 1026 30.3 855 25.25 7.5 45.4 71 2.5 36.5
09:25 1026 30.3 855 25.25 7.5 45.6 70 2.4 36.3
09:30 1026 30.3 855 25.25 7.8 46 68 2.3 36.2
09:35 1026 30.3 855 25.25 8 46.3 65 1.8 35.2
09:40 1026 30.3 855 25.25 8 46.4 66 2 35.6
09:45 1026 30.3 855 25.25 7.5 45.6 68 2 35.6
09:50 1026 30.3 855 25.25 7.6 45.6 66 1.7 35.1
09:55 1026 30.3 855 25.25 7.2 44.9 65 1 33.9
10:00 1026 30.3 855 25.25 7.9 46.2 61 0.8 33.4
10:05 1026 30.3 855 25.25 7.7 45.9 62 0.9 33.7
10:10 1026 30.3 855 25.25 8.4 47.1 60 1 33.8
10:15 1026 30.3 855 25.25 8.4 47.1 61 1.4 34.5
10:20 1026 30.3 855 25.25 8.2 46.7 61 1.2 34.2
10:25 1026 30.3 855 25.25 7.7 45.9 60 0.5 32.8
10:30 1026 30.3 855 25.25 8.1 46.5 59 0.6 33.2
10:35 1026 30.3 855 25.25 8 46.4 61 1 33.9
10:40 1026 30.3 855 25.25 8.3 47 57 0.3 32.5
10:45 1026 30.3 855 25.25 8.7 47.7 57 0.6 33.2
10:50 1026 30.3 855 25.25 8.8 47.8 56 0.5 32.8
10:55 1026 30.3 855 25.25 8.5 47.3 59 0.9 33.7
11:00 1026 30.3 855 25.25 8.1 46.5 58 0.3 32.5
11:05 1026 30.3 855 25.25 9.3 48.8 53 0.3 32.5
11:10 1026 30.3 855 25.25 10.1 50.2 52 0.8 33.5
11:15 1026 30.3 855 25.25 9.7 49.4 53 0.6 33.1
11:20 1026 30.3 855 25.25 9.5 49.2 52 0.2 32.4
11:25 1026 30.3 855 25.25 10.3 50.5 51 0.7 33.2
11:30 1026 30.3 855 25.25 9.8 49.6 55 1.1 34
11:35 1026 30.3 856 25.28 9.2 48.5 56 1 33.8
11:40 1026 30.3 856 25.28 8.7 47.7 57 0.7 33.2
11:45 1026 30.3 856 25.28 8.6 47.5 57 0.6 33.1
11:50 1026 30.3 856 25.28 9.5 49.1 53 0.4 32.7
11:55 1026 30.3 856 25.28 10.6 51 48 -0 31.9
12:00 1026 30.3 856 25.28 10.1 50.2 48 -0.4 31.3
12:05 1026 30.3 856 25.28 10.5 50.9 47 -0.4 31.2
12:10 1026 30.3 856 25.28 11.1 52 43 -0.9 30.4
12:15 1026 30.3 855 25.25 10.9 51.6 46 -0.2 31.6
12:20 1026 30.3 855 25.25 11.1 52 46 -0.1 31.9
12:25 1026 30.3 855 25.25 11.9 53.4 41 -0.9 30.4
12:30 1026 30.3 855 25.25 11.5 52.7 43 -0.8 30.6
12:35 1026 30.3 855 25.25 11.8 53.2 39 -1.6 29
12:40 1026 30.3 855 25.25 11.9 53.5 38 -1.7 28.9
12:45 1026 30.3 855 25.25 11.2 52.1 42 -1.2 29.8
12:50 1026 30.3 855 25.25 10.4 50.8 43 -1.4 29.4
12:55 1026 30.3 855 25.25 10.3 50.5 46 -0.8 30.6
13:00 1026 30.3 855 25.25 10.3 50.6 43 -1.7 28.9
13:05 1026 30.3 855 25.25 11.4 52.6 37 -2.5 27.4
13:10 1026 30.3 855 25.25 12.1 53.7 35 -2.8 27
13:15 1026 30.3 855 25.25 11.9 53.4 38 -1.9 28.6
13:20 1026 30.3 855 25.25 11.4 52.5 41 -1.3 29.6
13:25 1026 30.3 855 25.25 11.1 51.9 42 -1.3 29.6
13:30 1026 30.3 855 25.25 10.9 51.7 41 -1.8 28.8
13:35 1026 30.3 855 25.25 11.2 52.1 39 -2.3 27.8
13:40 1026 30.3 855 25.25 11.9 53.5 35 -3.1 26.5
13:45 1026 30.3 855 25.25 12.7 54.8 34 -2.6 27.4
13:50 1026 30.3 855 25.25 12.6 54.7 34 -2.9 26.7
13:55 1026 30.3 855 25.25 13.1 55.6 32 -3.1 26.5
14:00 1026 30.3 855 25.25 13.4 56 33 -2.4 27.8
14:05 1026 30.3 855 25.25 13.7 56.7 32 -2.8 27
14:10 1026 30.3 855 25.25 13.4 56.1 31 -3.2 26.2
14:15 1025 30.27 855 25.25 13.5 56.4 33 -2.4 27.6
14:20 1025 30.27 855 25.25 13.6 56.5 32 -2.8 27
14:25 1025 30.27 855 25.25 13.3 55.9 33 -2.4 27.6
14:30 1025 30.27 855 25.25 12.8 55 34 -2.6 27.4
14:35 1025 30.27 855 25.25 13.3 55.9 33 -2.8 27
14:40 1025 30.27 854 25.22 13.8 56.8 31 -2.9 26.7
14:45 1025 30.27 854 25.22 13.5 56.4 34 -1.9 28.5
14:50 1025 30.27 854 25.22 12.8 55 35 -2.3 27.9
14:55 1025 30.27 854 25.22 12.8 55 34 -2.6 27.3
15:00 1025 30.27 854 25.22 13.4 56.2 32 -2.9 26.7
15:05 1025 30.27 854 25.22 14.2 57.5 30 -3.1 26.4
15:10 1025 30.27 854 25.22 13.8 56.8 32 -2.6 27.3
15:15 1025 30.27 854 25.22 13.6 56.4 32 -2.9 26.9
15:20 1025 30.27 854 25.22 13.7 56.6 30 -3.3 26
15:25 1025 30.27 854 25.22 14 57.3 31 -2.9 26.8
15:30 1025 30.27 854 25.22 13.7 56.6 32 -2.5 27.5
15:35 1025 30.27 854 25.22 13 55.3 33 -3 26.7
15:40 1025 30.27 854 25.22 12.8 55 33 -3.2 26.2
15:45 1025 30.27 854 25.22 13.3 56 31 -3.5 25.7
15:50 1025 30.27 854 25.22 13.5 56.2 31 -3.3 26.1
15:55 1025 30.27 854 25.22 13.4 56.1 30 -3.6 25.5
16:00 1025 30.27 854 25.22 14.1 57.3 30 -3.4 25.9
16:05 1025 30.27 854 25.22 14 57.1 29 -3.5 25.7
16:10 1025 30.27 854 25.22 13 55.5 32 -3.3 26.1
16:15 1025 30.27 854 25.22 13.6 56.5 29 -3.8 25.2
16:20 1025 30.27 854 25.22 13.9 57.1 30 -3.5 25.7
16:25 1025 30.27 854 25.22 14.2 57.6 29 -3.7 25.4
16:30 1025 30.27 854 25.22 14.5 58 28 -3.7 25.3
16:35 1025 30.27 854 25.22 13.8 56.9 31 -3.2 26.3
16:40 1025 30.27 854 25.22 13.5 56.3 31 -3.2 26.2
16:45 1025 30.27 854 25.22 13.5 56.3 31 -3.3 26.1
16:50 1025 30.27 854 25.22 13 55.4 32 -3.1 26.3
16:55 1025 30.27 854 25.22 12.8 55 31 -3.8 25.1
17:00 1025 30.27 854 25.22 13 55.5 32 -3.2 26.2
17:05 1025 30.27 854 25.22 13.6 56.5 31 -3.3 26.1
17:10 1025 30.27 854 25.22 13.9 57 30 -3.2 26.2
17:15 1025 30.27 854 25.22 13.7 56.7 30 -3.5 25.8
17:20 1025 30.27 854 25.22 13.5 56.3 31 -3.2 26.3
17:25 1025 30.27 854 25.22 13.6 56.5 31 -3.3 26.1
17:30 1025 30.27 854 25.22 13.7 56.7 31 -3 26.7
17:35 1025 30.27 854 25.22 13.9 57 31 -2.9 26.9
17:40 1025 30.27 854 25.22 13.6 56.4 31 -3.2 26.2
17:45 1025 30.27 854 25.22 13.4 56.1 31 -3.2 26.2
17:50 1025 30.27 854 25.22 13 55.3 32 -3.1 26.5
17:55 1024 30.24 854 25.22 13 55.4 32 -3.2 26.3
18:00 1024 30.24 854 25.22 12.8 55.1 33 -2.9 26.8
18:05 1024 30.24 854 25.22 12.5 54.4 33 -3.4 25.9
18:10 1024 30.24 854 25.22 12.6 54.6 33 -3.4 26
18:15 1024 30.24 854 25.22 12.3 54.1 39 -1.2 29.8
18:20 1024 30.24 854 25.22 12.1 53.8 38 -1.7 28.9
18:25 1024 30.24 854 25.22 12.2 54 39 -1.2 29.9
18:30 1024 30.24 854 25.22 11.9 53.3 43 -0.3 31.5
18:35 1024 30.24 853 25.19 11.1 52 45 -0.2 31.6
18:40 1024 30.24 853 25.19 11 51.8 46 -0.1 31.8
18:45 1024 30.24 853 25.19 11.2 52.2 44 -0.6 31
18:50 1024 30.24 853 25.19 11 51.7 42 -1.3 29.7
18:55 1024 30.24 853 25.19 10.7 51.2 45 -0.9 30.4
19:00 1024 30.24 853 25.19 10.4 50.8 46 -0.6 30.9
19:05 1024 30.24 853 25.19 10.1 50.3 48 -0.2 31.6
19:10 1024 30.24 853 25.19 9.9 49.8 51 0.4 32.7
19:15 1024 30.24 853 25.19 9.9 49.8 54 1.1 34
19:20 1024 30.24 853 25.19 9.4 48.9 59 1.7 35.1
19:25 1024 30.24 853 25.19 8.8 47.9 61 1.7 35
19:30 1024 30.24 853 25.19 8.4 47.1 62 1.4 34.6
19:35 1024 30.24 853 25.19 8.2 46.8 61 1.3 34.3
19:40 1024 30.24 853 25.19 8 46.4 60 0.8 33.5
19:45 1024 30.24 853 25.19 8 46.4 60 0.8 33.5
19:50 1024 30.24 853 25.19 7.9 46.2 61 0.7 33.3
19:55 1024 30.24 853 25.19 7.9 46.2 61 0.8 33.4
20:00 1024 30.24 853 25.19 7.8 46.1 61 0.8 33.5
20:05 1024 30.24 853 25.19 7.7 45.9 62 0.8 33.4
20:10 1024 30.24 853 25.19 7.7 45.8 62 1 33.7
20:15 1024 30.24 853 25.19 7.5 45.4 63 0.8 33.4
20:20 1024 30.24 853 25.19 7.5 45.6 62 0.8 33.4
20:25 1024 30.24 853 25.19 7.4 45.4 62 0.7 33.3
20:30 1024 30.24 853 25.19 7.4 45.3 63 0.8 33.4
20:35 1024 30.24 853 25.19 7.2 45 63 0.8 33.4
20:40 1024 30.24 853 25.19 7.2 44.9 63 0.7 33.2
20:45 1024 30.24 853 25.19 7.1 44.9 64 0.8 33.4
20:50 1024 30.24 853 25.19 7.1 44.8 63 0.6 33.1
20:55 1024 30.24 853 25.19 7 44.6 63 0.5 32.9
21:00 1024 30.24 853 25.19 7 44.6 64 0.7 33.3
21:05 1024 30.24 853 25.19 7 44.6 64 0.7 33.2
21:10 1024 30.24 854 25.22 7 44.6 64 0.6 33
21:15 1024 30.24 854 25.22 7 44.6 64 0.7 33.2
21:20 1024 30.24 854 25.22 7.1 44.7 63 0.5 33
21:25 1024 30.24 854 25.22 7 44.6 64 0.6 33.1
21:30 1024 30.24 854 25.22 6.9 44.5 64 0.7 33.2
21:35 1025 30.27 854 25.22 6.7 44 66 0.8 33.5
21:40 1025 30.27 854 25.22 6.6 43.9 65 0.5 33
21:45 1025 30.27 854 25.22 6.6 43.9 66 0.7 33.2
21:50 1025 30.27 854 25.22 6.5 43.7 65 0.5 32.9
21:55 1025 30.27 854 25.22 6.5 43.6 66 0.5 33
22:00 1025 30.27 854 25.22 6.3 43.4 66 0.5 32.8
22:05 1025 30.27 854 25.22 6.2 43.2 66 0.3 32.6
22:10 1025 30.27 854 25.22 6.1 42.9 68 0.6 33.1
22:15 1025 30.27 854 25.22 5.7 42.3 70 0.7 33.2
22:20 1025 30.27 854 25.22 5.4 41.8 70 0.4 32.7
22:25 1025 30.27 854 25.22 5.4 41.7 69 0.1 32.3
22:30 1025 30.27 854 25.22 5.3 41.6 70 0.3 32.6
22:35 1025 30.27 854 25.22 5.3 41.6 67 -0.3 31.4
22:40 1025 30.27 854 25.22 5.5 42 67 -0.1 31.8
22:45 1025 30.27 854 25.22 5.5 41.8 67 -0.1 31.8
22:50 1025 30.27 854 25.22 5.3 41.6 68 -0 31.9
22:55 1025 30.27 854 25.22 5.3 41.6 68 -0.2 31.7
23:00 1025 30.27 854 25.22 5.3 41.5 68 -0.2 31.6
23:05 1025 30.27 854 25.22 5.3 41.5 67 -0.3 31.4
23:10 1025 30.27 854 25.22 5.4 41.7 68 -0 32
23:15 1025 30.27 854 25.22 5.1 41.1 69 -0.2 31.6
23:20 1025 30.27 854 25.22 5.1 41.1 68 -0.4 31.3
23:25 1025 30.27 854 25.22 5 40.9 70 0 32
23:30 1025 30.27 854 25.22 4.7 40.5 70 -0.3 31.5
23:35 1025 30.27 854 25.22 4.8 40.6 70 -0.2 31.7
23:40 1025 30.27 854 25.22 4.8 40.7 69 -0.5 31.2
23:45 1025 30.27 854 25.22 5 41.1 68 -0.3 31.4
23:50 1025 30.27 854 25.22 5 41 68 -0.5 31.1
23:55 1025 30.27 854 25.22 5.1 41.2 67 -0.4 31.2
24:00 1025 30.27 854 25.22 4.9 40.8 70 -0.1 31.7